Terminal Aerodrome Forecast
Issued by NWS

Home | Current Version | Previous Version | Text Only | Print | Product List | Glossary On
Versions: 1 2 3 4 5 6 7 8 9 10 11 12 13 14 15 16 17 18 19 20
000
FTUS42 KILM 021700
TAFCRE
TAF
KCRE 021729Z 0218/0318 31012KT P6SM SCT012
      TEMPO 0218/0219 BKN012
     FM022000 03008KT P6SM SCT025
     FM030000 05006KT P6SM OVC050
     FM030600 06012KT P6SM BKN025
     FM031400 05008KT P6SM VCSH SCT025=

USA.gov is the U.S. government's official web portal to all federal, state and local government web resources and services.